Lissie, Texas
Current Conditions -  °F | °C
As of 3:15 AM on Monday 24 Nov 2014 (Local Time) from KELA Reporting Station
Clear Clear  
Wind Chill: 54°   Ceiling: Unl
Heat Index: 54°   Visibility: 10mi
Dew Point: 43°   Wind: 10mph
Humidity: 66%   Direction: 340°NNW
Pressure: 29.88"   Gusts: 17mph
Location:  29.56°N, 96.23°W
Report Text: KELA 240915Z AUTO 34009G15KT 10SM CLR 12/06 A2988 RMK AO2 T01200059
Loading
Personal Weather Stations






























Interactive Weather Map New forecast layout! Learn more

10-Day Weather Forecast

Advertisements
Track Severe Weather on mobile